Time;durP1;ratioP1;P1;durP2;ratioP2;P2;SDS_P1;SDS_P2;PMS_P1;PMS_P2;Temp;Humidity;BMP_temperature;BMP_pressure;BME280_temperature;BME280_humidity;BME280_pressure;Samples;Min_cycle;Max_cycle;Signal;HPM_P1;HPM_P2
2023/01/16 00:00:57;;;;;;;25.52;16.58;;;;;;;3.58;72.97;98040.59;5132466;27;20031;-46
2023/01/16 00:03:23;;;;;;;65.70;52.15;;;;;;;3.62;73.59;98028.09;5132368;27;20554;-46
2023/01/16 00:05:48;;;;;;;68.00;56.95;;;;;;;3.63;73.70;98025.31;5132301;27;20019;-46
2023/01/16 00:08:14;;;;;;;73.50;39.83;;;;;;;3.66;73.28;98019.78;5133690;27;20455;-46
2023/01/16 00:10:40;;;;;;;68.72;57.58;;;;;;;3.64;71.77;98013.16;5133397;27;20019;-46
2023/01/16 00:13:06;;;;;;;51.70;37.75;;;;;;;3.63;71.59;98009.75;5132187;27;20059;-46
2023/01/16 00:15:32;;;;;;;38.53;18.88;;;;;;;3.63;71.77;97998.56;5133711;27;20439;-46
2023/01/16 00:17:58;;;;;;;27.08;14.38;;;;;;;3.67;72.58;97990.25;5133426;27;20034;-46
2023/01/16 00:20:24;;;;;;;23.02;16.40;;;;;;;3.67;72.77;97984.28;5132040;27;20519;-46
2023/01/16 00:22:50;;;;;;;73.82;59.40;;;;;;;3.48;72.52;97980.34;5133070;27;20074;-46
2023/01/16 00:25:16;;;;;;;39.05;29.85;;;;;;;3.35;73.43;97975.72;5133284;27;20035;-46
2023/01/16 00:27:41;;;;;;;55.78;37.13;;;;;;;3.50;75.18;97979.19;5133293;27;20027;-46
2023/01/16 00:30:08;;;;;;;37.78;26.55;;;;;;;3.70;75.90;97963.97;5131990;27;20023;-46
2023/01/16 00:32:33;;;;;;;39.63;25.70;;;;;;;3.63;75.28;97964.84;5133467;27;20050;-46
2023/01/16 00:34:59;;;;;;;50.15;31.48;;;;;;;3.51;75.33;97949.69;5133097;27;20493;-45
2023/01/16 00:37:25;;;;;;;52.38;42.13;;;;;;;3.43;75.90;97951.53;5131787;27;20102;-46
2023/01/16 00:39:53;;;;;;;40.70;30.90;;;;;;;3.19;75.48;97946.31;5131768;27;20031;-46
2023/01/16 00:42:19;;;;;;;43.15;29.35;;;;;;;3.03;76.44;97930.84;5133015;27;20497;-46
2023/01/16 00:44:45;;;;;;;54.35;37.20;;;;;;;2.97;76.62;97906.41;5132950;27;20023;-46
2023/01/16 00:47:10;;;;;;;35.38;21.70;;;;;;;3.00;77.10;97913.88;5132979;27;20034;-45
2023/01/16 00:49:36;;;;;;;35.58;25.08;;;;;;;3.08;77.11;97899.22;5114369;27;20049;-46
2023/01/16 00:52:03;;;;;;;50.58;38.08;;;;;;;3.13;76.61;97896.94;5131610;27;20027;-46
2023/01/16 00:54:29;;;;;;;95.03;70.07;;;;;;;3.21;75.98;97902.06;5132857;27;20027;-46
2023/01/16 00:56:54;;;;;;;43.47;36.28;;;;;;;3.26;75.68;97886.81;5131522;27;20034;-46
2023/01/16 00:59:20;;;;;;;9.18;6.07;;;;;;;3.24;74.60;97881.00;5131508;27;20023;-46
2023/01/16 01:01:46;;;;;;;37.00;28.33;;;;;;;3.17;74.75;97869.69;5131477;27;20488;-46
2023/01/16 01:04:12;;;;;;;18.85;9.15;;;;;;;3.28;74.00;97856.34;5131466;27;20061;-46
2023/01/16 01:06:38;;;;;;;18.20;13.20;;;;;;;3.24;73.08;97849.88;5132690;27;20522;-46
2023/01/16 01:09:04;;;;;;;66.63;51.95;;;;;;;3.18;73.28;97837.63;5131453;28;20019;-46
2023/01/16 01:11:30;;;;;;;29.10;18.48;;;;;;;3.60;75.74;97838.84;5131262;28;20076;-46
2023/01/16 01:13:57;;;;;;;14.75;9.77;;;;;;;3.92;74.31;97831.72;5132701;27;20020;-46
2023/01/16 01:16:22;;;;;;;24.15;16.73;;;;;;;3.73;72.17;97813.13;5132690;27;20027;-46
2023/01/16 01:18:49;;;;;;;831.22;534.05;;;;;;;3.64;73.66;97808.97;5132631;27;20102;-46
2023/01/16 01:21:14;;;;;;;537.92;310.08;;;;;;;3.83;74.42;97809.47;5132614;27;20035;-46
2023/01/16 01:23:40;;;;;;;273.67;172.15;;;;;;;3.87;74.14;97808.13;5130852;28;20088;-46
2023/01/16 01:26:11;;;;;;;794.08;495.90;;;;;;;3.89;75.31;97793.16;5131261;28;20114;-46
2023/01/16 01:28:37;;;;;;;220.75;127.70;;;;;;;4.10;75.33;97776.84;5132642;27;20055;-46
2023/01/16 01:31:09;;;;;;;351.55;249.30;;;;;;;4.26;74.68;97770.66;5131112;28;20026;-46
2023/01/16 01:33:35;;;;;;;66.75;49.50;;;;;;;4.47;74.11;97760.28;5132775;27;20126;-46
2023/01/16 01:36:01;;;;;;;40.05;28.70;;;;;;;4.59;73.10;97758.03;5132488;27;20068;-46
2023/01/16 01:38:26;;;;;;;28.48;15.35;;;;;;;4.49;72.42;97754.94;5131104;28;20019;-46
2023/01/16 01:40:52;;;;;;;36.80;21.85;;;;;;;4.22;71.99;97746.81;5132626;28;20035;-46
2023/01/16 01:43:19;;;;;;;53.20;40.17;;;;;;;4.12;72.34;97734.13;5132407;27;20023;-46
2023/01/16 01:45:54;;;;;;;31.15;21.30;;;;;;;4.26;72.98;97736.88;5131075;28;20026;-46
2023/01/16 01:48:24;;;;;;;33.78;23.00;;;;;;;4.33;71.88;97735.19;5132419;27;20046;-46
2023/01/16 01:51:09;;;;;;;38.53;30.58;;;;;;;4.46;72.08;97726.69;5130869;28;20023;-46
2023/01/16 01:53:41;;;;;;;38.20;28.52;;;;;;;4.64;70.85;97715.88;5132418;27;20524;-46
2023/01/16 01:56:16;;;;;;;24.88;18.27;;;;;;;4.68;69.15;97706.72;5131168;28;20023;-46
2023/01/16 01:58:44;;;;;;;30.70;18.37;;;;;;;4.56;69.06;97702.00;5134365;27;20027;-46
2023/01/16 02:01:10;;;;;;;25.00;15.48;;;;;;;4.42;69.43;97699.50;5134763;27;20027;-46
2023/01/16 02:04:09;;;;;;;38.63;27.55;;;;;;;4.26;69.77;97687.53;5136065;27;20110;-46
2023/01/16 02:06:42;;;;;;;12.35;7.47;;;;;;;4.14;69.96;97680.22;5134745;27;20023;-46
2023/01/16 02:09:08;;;;;;;17.80;9.10;;;;;;;3.87;69.87;97668.75;5134693;27;20378;-46
2023/01/16 02:11:40;;;;;;;21.33;9.85;;;;;;;3.84;71.46;97658.72;5169134;27;20092;-46
2023/01/16 02:14:09;;;;;;;48.38;40.38;;;;;;;4.01;71.85;97635.97;5135884;27;20560;-46
2023/01/16 02:19:22;;;;;;;23.13;18.25;;;;;;;5.04;66.06;97615.59;5135780;27;20027;-46
2023/01/16 02:22:20;;;;;;;28.10;20.67;;;;;;;5.57;62.76;97602.84;5134633;27;20041;-46
2023/01/16 02:25:45;;;;;;;22.38;15.32;;;;;;;6.09;59.93;97592.00;5090252;28;20051;-46
2023/01/16 02:28:26;;;;;;;47.63;38.80;;;;;;;6.53;58.03;97569.75;5094694;28;20028;-46
2023/01/16 02:31:24;;;;;;;31.70;27.38;;;;;;;6.89;57.89;97545.03;5094634;28;20055;-46
2023/01/16 02:33:56;;;;;;;27.23;20.55;;;;;;;7.26;57.03;97535.66;5094899;28;20119;-46
2023/01/16 02:36:49;;;;;;;20.20;12.80;;;;;;;7.61;54.95;97532.69;5093173;28;20032;-46
2023/01/16 02:39:17;;;;;;;23.02;15.52;;;;;;;7.76;56.09;97517.53;5093191;28;20082;-46
2023/01/16 02:42:06;;;;;;;48.13;37.47;;;;;;;8.00;55.84;97513.34;5093089;28;20401;-47
2023/01/16 02:44:53;;;;;;;76.18;63.88;;;;;;;8.16;53.74;97506.00;5091050;28;20110;-46
2023/01/16 02:47:45;;;;;;;31.50;25.60;;;;;;;8.14;52.86;97498.38;5094335;28;20032;-46
2023/01/16 02:50:27;;;;;;;41.22;36.78;;;;;;;8.18;54.14;97486.47;5092862;28;20024;-46
2023/01/16 02:52:59;;;;;;;19.92;8.30;;;;;;;8.16;55.30;97480.66;5094236;28;20149;-46
2023/01/16 02:55:37;;;;;;;8.25;4.78;;;;;;;8.21;55.56;97472.19;5094258;28;20125;-46
2023/01/16 02:58:05;;;;;;;23.77;18.35;;;;;;;8.17;54.33;97452.72;5094180;28;20063;-46
2023/01/16 03:00:33;;;;;;;34.22;29.15;;;;;;;8.16;53.91;97446.69;5092698;28;20040;-46
2023/01/16 03:02:59;;;;;;;21.48;16.50;;;;;;;8.18;53.31;97439.44;5094010;28;20020;-46
2023/01/16 03:05:27;;;;;;;16.33;12.68;;;;;;;8.16;52.12;97428.38;5093989;28;20021;-46
2023/01/16 03:08:19;;;;;;;26.95;24.13;;;;;;;8.17;51.47;97409.09;5093837;28;20020;-46
2023/01/16 03:11:24;;;;;;;12.52;9.40;;;;;;;8.10;51.34;97404.94;5092084;28;20024;-46
2023/01/16 03:13:50;;;;;;;37.53;33.20;;;;;;;7.99;51.37;97419.53;5125266;27;20036;-46
2023/01/16 03:16:29;;;;;;;16.52;10.18;;;;;;;7.77;51.54;97406.84;5093646;28;20016;-46
2023/01/16 03:19:20;;;;;;;12.32;6.95;;;;;;;7.45;51.77;97410.50;5092446;28;20079;-47
2023/01/16 03:21:57;;;;;;;27.15;24.27;;;;;;;7.28;52.64;97395.34;5094079;28;20028;-46
2023/01/16 03:24:27;;;;;;;26.65;20.02;;;;;;;7.27;52.77;97382.53;5093861;28;20040;-46
2023/01/16 03:27:31;;;;;;;19.63;16.08;;;;;;;7.38;53.15;97371.38;5093556;28;20476;-46
2023/01/16 03:30:04;;;;;;;76.45;57.22;;;;;;;7.53;52.71;97361.44;5093311;28;20081;-46
2023/01/16 03:32:42;;;;;;;50.35;41.58;;;;;;;7.61;52.99;97355.16;5075720;28;20048;-46
2023/01/16 03:35:23;;;;;;;19.85;12.45;;;;;;;7.67;52.14;97348.28;5093222;28;20054;-46
2023/01/16 03:37:56;;;;;;;19.27;13.05;;;;;;;7.63;51.84;97344.50;5092070;28;20024;-46
2023/01/16 03:40:30;;;;;;;22.38;15.73;;;;;;;7.49;52.16;97333.38;5075081;28;20405;-46
2023/01/16 03:43:06;;;;;;;37.42;30.38;;;;;;;7.47;52.00;97314.53;5091951;28;20093;-46
2023/01/16 03:45:51;;;;;;;18.17;12.95;;;;;;;7.57;51.61;97309.59;5091946;28;20040;-46
2023/01/16 03:48:35;;;;;;;29.98;26.60;;;;;;;7.61;51.98;97316.00;5093159;28;20028;-46
2023/01/16 03:51:06;;;;;;;26.08;18.58;;;;;;;7.62;51.45;97296.69;5093100;28;20031;-46
2023/01/16 03:53:47;;;;;;;25.50;17.23;;;;;;;7.66;51.43;97286.63;5093041;28;20028;-47
2023/01/16 03:56:27;;;;;;;12.23;9.45;;;;;;;7.68;50.94;97267.09;5093007;28;20043;-46
2023/01/16 03:58:54;;;;;;;34.25;30.50;;;;;;;7.68;50.82;97250.66;5093024;28;20024;-46
2023/01/16 04:01:52;;;;;;;19.90;16.80;;;;;;;7.77;50.91;97239.69;5092865;28;20046;-46
2023/01/16 04:04:20;;;;;;;10.80;9.70;;;;;;;7.86;49.94;97228.97;5092880;28;20064;-46
2023/01/16 04:07:00;;;;;;;14.85;12.77;;;;;;;7.91;50.15;97208.22;5092834;28;20019;-46
2023/01/16 04:09:52;;;;;;;29.48;23.42;;;;;;;8.02;49.69;97193.59;5091596;28;20073;-46
2023/01/16 04:12:22;;;;;;;23.40;15.60;;;;;;;8.16;48.62;97181.97;5089150;28;20048;-46
2023/01/16 04:14:55;;;;;;;18.45;12.30;;;;;;;8.28;48.03;97182.78;5092978;28;20024;-46
2023/01/16 04:17:22;;;;;;;13.25;6.63;;;;;;;8.32;48.10;97157.00;5092633;28;20024;-47
2023/01/16 04:19:47;;;;;;;10.52;5.97;;;;;;;8.25;47.93;97151.06;5092275;28;20024;-46
2023/01/16 04:22:23;;;;;;;14.15;10.30;;;;;;;8.28;48.20;97132.34;5099201;27;20612;-46
2023/01/16 04:24:51;;;;;;;18.63;13.27;;;;;;;8.30;47.48;97136.31;5132023;27;20028;-46
2023/01/16 04:27:18;;;;;;;29.23;24.38;;;;;;;8.23;48.16;97114.72;5133269;27;20110;-47
2023/01/16 04:29:44;;;;;;;37.50;30.58;;;;;;;8.19;48.14;97118.81;5133140;27;20023;-46
2023/01/16 04:32:09;;;;;;;66.32;50.53;;;;;;;8.18;48.71;97111.97;5133108;27;20031;-46
2023/01/16 04:34:35;;;;;;;36.28;28.95;;;;;;;8.15;48.04;97102.78;5133183;27;20485;-46
2023/01/16 04:37:01;;;;;;;39.42;30.92;;;;;;;8.08;49.03;97096.84;5131770;27;20106;-46
2023/01/16 04:39:26;;;;;;;15.05;12.40;;;;;;;8.15;48.84;97102.00;5133185;27;20090;-46
2023/01/16 04:41:52;;;;;;;44.95;31.10;;;;;;;8.15;47.93;97075.88;5133070;27;20023;-46
2023/01/16 04:44:18;;;;;;;114.75;77.03;;;;;;;8.00;48.30;97078.88;5133013;27;20504;-47
2023/01/16 04:46:44;;;;;;;21.55;17.95;;;;;;;7.90;49.29;97078.63;5131698;27;20035;-47
2023/01/16 04:49:09;;;;;;;22.42;20.08;;;;;;;7.87;49.67;97066.00;5132977;27;20061;-47
2023/01/16 04:51:36;;;;;;;21.25;17.13;;;;;;;7.89;49.59;97061.38;5131584;27;20095;-47
2023/01/16 04:54:04;;;;;;;36.88;25.08;;;;;;;7.88;48.75;97062.38;5131549;27;20064;-47
2023/01/16 04:56:29;;;;;;;14.27;12.52;;;;;;;7.83;48.46;97062.25;5132878;27;20021;-46
2023/01/16 04:58:55;;;;;;;46.67;40.95;;;;;;;7.76;49.30;97073.56;5131514;27;20126;-46
2023/01/16 05:01:21;;;;;;;32.53;28.83;;;;;;;7.73;49.52;97053.13;5131527;27;20430;-47
2023/01/16 05:03:47;;;;;;;21.90;17.13;;;;;;;7.79;48.96;97048.84;5132833;27;20098;-46
2023/01/16 05:06:12;;;;;;;18.50;14.10;;;;;;;7.89;49.30;97022.19;5132747;27;20441;-46
2023/01/16 05:08:38;;;;;;;28.60;18.85;;;;;;;7.97;49.03;97025.28;5132733;28;20378;-46
2023/01/16 05:11:04;;;;;;;40.63;29.33;;;;;;;8.07;48.72;97009.03;5132611;27;20442;-47
2023/01/16 05:13:30;;;;;;;39.10;34.83;;;;;;;8.14;48.54;96999.28;5132704;27;20041;-46
2023/01/16 05:15:56;;;;;;;42.85;35.45;;;;;;;8.17;48.68;96977.13;5131336;28;20037;-46
2023/01/16 05:18:23;;;;;;;23.42;21.08;;;;;;;8.14;50.71;96946.22;5132647;27;20090;-46
2023/01/16 05:20:49;;;;;;;15.80;13.48;;;;;;;8.04;51.08;96944.19;5132645;27;20050;-46
2023/01/16 05:23:15;;;;;;;17.27;12.82;;;;;;;7.95;51.08;96956.00;5132378;27;20093;-46
2023/01/16 05:25:41;;;;;;;105.90;69.82;;;;;;;8.02;51.48;96943.59;5132581;27;20050;-46
2023/01/16 05:28:06;;;;;;;38.22;32.22;;;;;;;8.04;51.41;96959.06;5131246;28;20019;-46
2023/01/16 05:30:32;;;;;;;44.60;36.05;;;;;;;8.01;51.69;96976.00;5131099;28;20035;-46
2023/01/16 05:32:58;;;;;;;39.78;35.38;;;;;;;7.99;52.21;96983.25;5134683;27;20054;-47
2023/01/16 05:35:24;;;;;;;21.10;14.55;;;;;;;7.93;52.45;96999.84;5136676;27;20023;-46
2023/01/16 05:37:50;;;;;;;18.17;13.27;;;;;;;7.85;51.91;97006.16;5135371;27;20036;-47
2023/01/16 05:40:16;;;;;;;14.10;8.82;;;;;;;7.80;52.37;97006.81;5136536;27;20492;-47
2023/01/16 05:42:47;;;;;;;18.75;9.43;;;;;;;7.78;51.78;97008.84;5135188;27;20050;-47
2023/01/16 05:45:13;;;;;;;49.08;31.83;;;;;;;7.67;50.98;96986.16;5136425;27;20023;-46
2023/01/16 05:47:39;;;;;;;17.67;9.98;;;;;;;7.83;52.77;96994.34;5136462;27;20023;-46
2023/01/16 05:50:05;;;;;;;24.50;21.75;;;;;;;7.74;52.54;96996.47;5136272;27;20388;-46
2023/01/16 05:52:31;;;;;;;21.17;15.52;;;;;;;7.48;54.44;97003.66;5136332;27;20508;-46
2023/01/16 05:54:56;;;;;;;27.08;20.52;;;;;;;7.39;52.70;96999.78;5136289;27;20030;-46
2023/01/16 05:57:23;;;;;;;32.83;13.00;;;;;;;7.33;55.02;97004.06;5136203;27;20056;-47
2023/01/16 05:59:52;;;;;;;25.02;17.13;;;;;;;7.39;53.00;96991.97;5134869;27;20027;-46
2023/01/16 06:02:20;;;;;;;22.10;14.75;;;;;;;7.29;53.39;96997.72;5134757;27;20488;-46
2023/01/16 06:04:46;;;;;;;43.70;37.60;;;;;;;7.17;53.04;96987.22;5136121;27;20404;-46
2023/01/16 06:07:12;;;;;;;30.92;20.02;;;;;;;7.20;53.66;96985.97;5134695;27;20110;-46
2023/01/16 06:09:38;;;;;;;36.90;26.95;;;;;;;7.23;54.27;96995.97;5134733;27;20043;-46
2023/01/16 06:12:07;;;;;;;75.75;54.53;;;;;;;7.13;53.31;97000.94;5134599;27;20116;-46
2023/01/16 06:14:35;;;;;;;75.18;51.40;;;;;;;7.06;54.68;97000.19;5135931;27;20072;-46
2023/01/16 06:17:01;;;;;;;215.13;129.05;;;;;;;6.98;54.23;97004.72;5135866;27;20074;-46
2023/01/16 06:19:27;;;;;;;162.35;106.43;;;;;;;6.82;55.58;96989.63;5134486;27;20508;-46
2023/01/16 06:21:52;;;;;;;52.15;29.63;;;;;;;6.90;56.93;97020.66;5134195;27;20027;-46
2023/01/16 06:24:18;;;;;;;28.63;21.08;;;;;;;7.03;55.66;96988.41;5135713;27;20023;-46
2023/01/16 06:26:44;;;;;;;51.65;32.58;;;;;;;6.97;58.99;96987.47;5135594;27;20076;-46
2023/01/16 06:29:10;;;;;;;32.05;19.60;;;;;;;6.66;58.35;96980.59;5134327;27;20023;-46
2023/01/16 06:31:36;;;;;;;29.88;23.75;;;;;;;6.39;59.42;96988.66;5134293;27;20532;-46
2023/01/16 06:34:02;;;;;;;44.05;28.67;;;;;;;6.40;61.75;96971.25;5134171;27;20400;-46
2023/01/16 06:36:27;;;;;;;19.67;13.18;;;;;;;6.43;61.45;96978.63;5134189;27;20045;-46
2023/01/16 06:38:53;;;;;;;66.10;44.22;;;;;;;6.44;62.46;96982.84;5134166;27;20016;-46
2023/01/16 06:41:19;;;;;;;55.97;45.35;;;;;;;6.20;63.32;96951.38;5135623;27;20038;-45
2023/01/16 06:43:45;;;;;;;86.32;53.35;;;;;;;5.86;66.13;96920.63;5133908;27;20027;-46
2023/01/16 06:46:11;;;;;;;554.42;368.52;;;;;;;5.57;69.99;96972.28;5133940;27;20023;-45
2023/01/16 06:48:36;;;;;;;285.95;225.60;;;;;;;5.38;70.29;96956.59;5135245;27;20016;-44
2023/01/16 06:51:02;;;;;;;60.22;44.78;;;;;;;5.28;71.71;96952.88;5135140;27;20058;-45
2023/01/16 06:53:28;;;;;;;46.22;29.05;;;;;;;5.16;72.64;96943.13;5135173;27;20020;-45
2023/01/16 06:55:54;;;;;;;30.60;25.85;;;;;;;5.11;73.06;96923.94;5135058;27;20019;-45
2023/01/16 06:58:19;;;;;;;42.63;35.33;;;;;;;5.08;74.61;96919.97;5133756;27;20132;-45
2023/01/16 07:00:50;;;;;;;36.72;26.52;;;;;;;5.08;74.53;96911.38;5134980;27;20408;-45
2023/01/16 07:03:16;;;;;;;42.40;38.05;;;;;;;5.08;77.06;96924.38;5135072;27;20429;-45
2023/01/16 07:05:44;;;;;;;53.08;47.25;;;;;;;5.09;77.72;96905.16;5134915;27;20019;-45
2023/01/16 07:08:09;;;;;;;57.40;44.78;;;;;;;5.03;78.76;96913.78;5133511;27;20121;-44
2023/01/16 07:10:36;;;;;;;79.43;68.50;;;;;;;4.97;81.04;96910.22;5134720;27;20126;-44
2023/01/16 07:13:01;;;;;;;56.42;44.70;;;;;;;4.99;79.84;96885.63;5133687;27;20023;-45
2023/01/16 07:23:49;;;;;;;102.60;85.47;;;;;;;5.48;76.69;96890.31;5134464;27;20050;-45
2023/01/16 07:26:20;;;;;;;31.75;28.35;;;;;;;5.50;74.89;96836.25;5134811;27;20046;-46
2023/01/16 07:28:48;;;;;;;12.00;9.70;;;;;;;5.53;73.85;96831.44;5133201;27;20043;-46
2023/01/16 07:31:14;;;;;;;20.08;15.80;;;;;;;5.39;75.38;96856.75;5133145;27;20015;-46
2023/01/16 07:33:40;;;;;;;24.23;18.08;;;;;;;5.37;75.34;96830.16;5134382;27;20031;-46
2023/01/16 07:36:06;;;;;;;11.00;8.27;;;;;;;5.40;75.63;96824.50;5132924;27;20023;-45
2023/01/16 07:38:32;;;;;;;9.40;3.47;;;;;;;5.37;76.15;96839.75;5132957;27;20027;-46
2023/01/16 07:40:57;;;;;;;9.95;5.35;;;;;;;5.26;77.26;96843.84;5134208;27;20106;-46
2023/01/16 07:43:23;;;;;;;19.30;17.20;;;;;;;5.28;78.56;96825.44;5132786;27;20168;-45
2023/01/16 07:45:52;;;;;;;12.68;9.77;;;;;;;5.28;77.82;96810.63;5132774;27;20020;-46
2023/01/16 07:48:22;;;;;;;32.97;20.98;;;;;;;5.11;78.61;96819.94;5134328;27;20404;-45
2023/01/16 07:50:52;;;;;;;25.95;18.67;;;;;;;5.15;80.36;96837.53;5133903;27;20019;-46
2023/01/16 07:53:21;;;;;;;18.63;12.27;;;;;;;5.21;80.13;96820.25;5133996;27;20019;-46
2023/01/16 07:55:51;;;;;;;15.80;10.77;;;;;;;5.31;79.62;96861.41;5133286;27;20026;-46
2023/01/16 07:58:18;;;;;;;6.80;3.15;;;;;;;5.39;78.47;96781.31;5132579;27;20071;-46
2023/01/16 08:00:44;;;;;;;12.07;7.93;;;;;;;5.52;77.57;96829.03;5133814;27;20058;-46
2023/01/16 08:03:11;;;;;;;13.63;6.65;;;;;;;5.59;76.54;96824.56;5133676;27;20605;-46
2023/01/16 08:05:37;;;;;;;6.18;4.25;;;;;;;5.67;77.10;96800.84;5133631;27;20500;-46
2023/01/16 08:08:03;;;;;;;4.40;1.98;;;;;;;5.79;75.05;96747.09;5132336;27;20052;-45
2023/01/16 08:10:29;;;;;;;6.38;3.28;;;;;;;5.95;74.21;96778.78;5132249;27;20052;-45
2023/01/16 08:12:54;;;;;;;5.78;2.15;;;;;;;5.94;74.70;96805.81;5133597;27;20027;-46
2023/01/16 08:15:20;;;;;;;10.77;3.65;;;;;;;5.91;76.04;96788.78;5132192;27;20030;-46
2023/01/16 08:17:46;;;;;;;11.43;8.63;;;;;;;5.99;76.69;96798.16;5132171;27;20038;-46
2023/01/16 08:20:12;;;;;;;10.73;6.90;;;;;;;5.98;76.58;96801.78;5133344;27;20034;-46
2023/01/16 08:22:49;;;;;;;7.05;3.35;;;;;;;5.82;76.90;96795.31;5131842;27;20050;-46
2023/01/16 08:25:17;;;;;;;6.63;2.75;;;;;;;5.71;77.87;96796.00;5133385;27;20258;-46
2023/01/16 08:27:43;;;;;;;15.55;10.07;;;;;;;5.70;76.85;96790.03;5133337;27;20023;-45
2023/01/16 08:30:09;;;;;;;7.07;4.82;;;;;;;5.73;77.19;96780.97;5132149;27;20023;-45
2023/01/16 08:32:35;;;;;;;8.00;4.80;;;;;;;5.92;78.50;96763.56;5131949;27;20039;-46
2023/01/16 08:35:03;;;;;;;9.73;2.67;;;;;;;6.18;77.32;96776.31;5133266;27;20019;-45
2023/01/16 08:37:32;;;;;;;7.13;4.63;;;;;;;6.22;75.97;96752.41;5133086;27;20052;-45
2023/01/16 08:39:58;;;;;;;5.97;4.68;;;;;;;6.35;76.59;96810.34;5131830;27;20027;-46
2023/01/16 08:53:41;;;;;;;10.48;3.65;;;;;;;6.64;70.88;96732.41;5109049;27;20404;-46
2023/01/16 08:56:08;;;;;;;7.43;3.25;;;;;;;6.56;73.00;96750.94;5131644;27;20026;-46
2023/01/16 08:58:33;;;;;;;6.05;1.88;;;;;;;6.55;71.88;96760.59;5131575;27;20019;-46
2023/01/16 09:00:59;;;;;;;3.25;1.13;;;;;;;6.60;71.63;96729.44;5132868;27;20030;-46
2023/01/16 09:03:24;;;;;;;6.00;1.85;;;;;;;6.65;71.33;96743.63;5131623;27;20023;-46
2023/01/16 09:05:50;;;;;;;5.05;2.55;;;;;;;6.59;70.71;96742.69;5132655;27;20025;-46
2023/01/16 09:08:16;;;;;;;4.72;3.22;;;;;;;6.57;71.42;96752.56;5132010;27;20072;-46
2023/01/16 09:13:48;;;;;;;7.80;4.15;;;;;;;6.60;71.49;96741.69;5166102;27;20034;-45
2023/01/16 09:16:11;;;;;;;4.88;2.58;;;;;;;6.77;74.92;96753.06;5133033;28;20049;-46
2023/01/16 09:18:37;;;;;;;9.65;6.35;;;;;;;6.91;72.55;96732.78;5132624;28;20016;-46
2023/01/16 09:21:02;;;;;;;7.75;5.65;;;;;;;7.11;73.19;96736.91;5131309;28;20450;-46
2023/01/16 09:23:28;;;;;;;17.50;10.00;;;;;;;7.11;70.04;96709.00;5132375;27;20541;-46
2023/01/16 09:25:54;;;;;;;54.65;45.08;;;;;;;7.14;70.76;96686.88;5132580;27;20023;-46
2023/01/16 09:28:20;;;;;;;116.32;74.47;;;;;;;7.16;69.55;96737.81;5131256;28;20035;-46
2023/01/16 09:30:45;;;;;;;196.50;109.05;;;;;;;7.26;69.47;96744.25;5131098;28;20114;-46
2023/01/16 09:33:11;;;;;;;53.25;33.05;;;;;;;7.26;69.00;96724.19;5132584;27;20023;-46
2023/01/16 09:35:37;;;;;;;50.53;35.33;;;;;;;7.21;69.69;96729.28;5132559;28;20087;-46
2023/01/16 09:38:02;;;;;;;22.83;13.63;;;;;;;7.27;70.00;96738.81;5132483;27;20119;-46
2023/01/16 09:40:29;;;;;;;11.32;7.15;;;;;;;7.36;69.52;96727.03;5131138;28;20027;-46
2023/01/16 09:45:58;;;;;;;4.40;2.50;;;;;;;8.40;65.76;96731.41;5132442;28;20039;-46
2023/01/16 09:48:40;;;;;;;5.75;2.03;;;;;;;8.91;63.63;96731.50;5132745;27;20396;-46
2023/01/16 09:51:11;;;;;;;3.53;1.65;;;;;;;8.86;63.29;96752.34;5113934;28;20092;-47
2023/01/16 09:59:39;;;;;;;3.42;1.65;;;;;;;8.28;63.58;96677.63;5132611;28;20520;-46
2023/01/16 10:02:17;;;;;;;6.63;2.45;;;;;;;7.92;64.40;96677.75;5132517;27;20400;-46
2023/01/16 10:04:44;;;;;;;3.65;1.17;;;;;;;7.70;66.73;96740.25;5130945;28;20055;-46
2023/01/16 10:07:21;;;;;;;2.10;1.77;;;;;;;7.65;66.83;96732.34;5132232;27;20148;-46
2023/01/16 10:09:59;;;;;;;4.53;1.38;;;;;;;7.59;68.59;96748.91;5132182;27;20106;-46
2023/01/16 10:12:55;;;;;;;3.47;1.73;;;;;;;7.62;68.06;96758.88;5132498;27;20027;-46
2023/01/16 10:15:50;;;;;;;3.78;1.00;;;;;;;7.63;69.44;96747.44;5132232;27;20057;-46
2023/01/16 10:18:42;;;;;;;10.90;3.40;;;;;;;7.73;68.19;96739.03;5133176;27;20027;-46
2023/01/16 10:21:08;;;;;;;2.90;0.93;;;;;;;7.73;67.42;96721.53;5134522;27;20042;-46
2023/01/16 10:24:06;;;;;;;3.65;1.25;;;;;;;7.73;70.62;96736.41;5135676;27;20040;-46
2023/01/16 10:27:12;;;;;;;2.40;0.80;;;;;;;7.99;69.13;96722.03;5108977;27;20046;-46
2023/01/16 10:29:52;;;;;;;2.25;1.20;;;;;;;10.05;62.86;96715.50;5120782;27;20412;-46
2023/01/16 10:32:26;;;;;;;5.50;1.73;;;;;;;11.17;62.10;96716.50;5134294;27;20027;-46
2023/01/16 10:35:04;;;;;;;7.05;1.48;;;;;;;11.95;57.08;96694.06;5135622;27;20023;-46
2023/01/16 10:37:32;;;;;;;2.15;0.70;;;;;;;12.62;54.59;96696.84;5135837;27;20438;-47
2023/01/16 10:40:01;;;;;;;5.65;2.33;;;;;;;12.94;52.94;96681.56;5134133;27;20062;-47
2023/01/16 10:51:00;;;;;;;10.88;2.63;;;;;;;13.64;50.67;96591.28;5135273;27;20057;-46
2023/01/16 10:53:26;;;;;;;4.50;1.40;;;;;;;13.52;48.89;96618.00;5135252;27;20025;-47
2023/01/16 10:55:54;;;;;;;5.35;1.40;;;;;;;13.34;50.06;96618.56;5134091;27;20397;-47
2023/01/16 10:58:29;;;;;;;2.13;0.95;;;;;;;12.76;50.04;96618.94;5135124;27;20484;-47
2023/01/16 11:01:14;;;;;;;1.67;0.85;;;;;;;11.85;51.39;96649.31;5133737;27;20027;-47
2023/01/16 11:03:55;;;;;;;7.72;1.05;;;;;;;11.23;52.53;96656.13;5135113;27;20061;-46
2023/01/16 11:06:29;;;;;;;7.25;2.03;;;;;;;10.78;54.72;96639.84;5133682;27;20027;-46
2023/01/16 11:09:02;;;;;;;6.20;2.20;;;;;;;10.57;57.20;96629.22;5133592;27;20035;-47
2023/01/16 11:20:34;;;;;;;7.05;1.27;;;;;;;11.11;57.68;96649.28;5134989;27;20022;-46
2023/01/16 11:23:09;;;;;;;15.38;1.83;;;;;;;11.30;55.39;96607.59;5133083;27;20084;-46
2023/01/16 11:25:35;;;;;;;8.07;2.08;;;;;;;11.22;56.18;96621.22;5134579;27;20541;-47
2023/01/16 11:28:06;;;;;;;5.00;1.13;;;;;;;11.70;57.11;96608.81;5134530;27;20050;-46
2023/01/16 11:30:41;;;;;;;10.00;1.88;;;;;;;12.21;53.69;96610.00;5132312;27;20023;-46
2023/01/16 11:33:15;;;;;;;5.03;1.38;;;;;;;11.87;52.99;96598.09;5133144;27;20023;-47
2023/01/16 11:35:49;;;;;;;4.85;1.50;;;;;;;11.67;53.95;96598.84;5134462;27;20023;-47
2023/01/16 11:38:14;;;;;;;4.43;1.40;;;;;;;11.55;53.26;96600.88;5134613;27;20490;-46
2023/01/16 11:40:52;;;;;;;4.53;1.60;;;;;;;11.56;54.73;96587.47;5132918;27;20063;-47
2023/01/16 11:46:28;;;;;;;4.85;1.42;;;;;;;11.55;53.46;96606.94;5134439;27;20042;-46
2023/01/16 11:48:57;;;;;;;12.23;2.53;;;;;;;11.41;54.87;96595.34;5134056;27;20075;-46
2023/01/16 11:51:32;;;;;;;3.75;1.23;;;;;;;11.61;53.76;96599.88;5132577;27;20180;-46
2023/01/16 11:54:00;;;;;;;7.63;2.47;;;;;;;11.60;53.25;96577.25;5134060;27;20061;-46
2023/01/16 11:56:56;;;;;;;11.75;3.28;;;;;;;11.87;55.30;96571.81;5133955;27;20253;-47
2023/01/16 11:59:40;;;;;;;7.32;2.17;;;;;;;12.70;52.19;96588.41;5132636;27;20033;-46
2023/01/16 12:02:24;;;;;;;8.85;2.53;;;;;;;13.09;50.39;96577.28;5133908;27;20027;-47
2023/01/16 12:08:24;;;;;;;7.38;1.30;;;;;;;12.47;50.17;96564.22;5134021;27;20038;-47
2023/01/16 12:11:07;;;;;;;3.83;1.38;;;;;;;12.25;50.29;96553.19;5125173;27;20043;-46
2023/01/16 12:16:56;;;;;;;6.88;2.38;;;;;;;11.71;52.29;96563.09;5133866;27;20126;-47
2023/01/16 12:19:49;;;;;;;3.85;1.20;;;;;;;11.66;51.95;96549.16;5132244;27;20403;-47
2023/01/16 12:22:18;;;;;;;5.50;1.17;;;;;;;11.67;51.70;96554.16;5133325;27;20125;-47
2023/01/16 12:25:08;;;;;;;8.30;1.77;;;;;;;11.80;52.45;96568.63;5132111;27;20023;-47
2023/01/16 12:27:56;;;;;;;6.35;1.77;;;;;;;11.80;52.02;96566.78;5131590;27;20039;-47
2023/01/16 12:30:46;;;;;;;5.43;1.95;;;;;;;11.64;51.31;96559.94;5133229;27;20062;-47
2023/01/16 12:33:39;;;;;;;8.32;1.40;;;;;;;11.54;52.05;96565.94;5133258;27;20027;-47
2023/01/16 12:36:30;;;;;;;2.90;0.82;;;;;;;11.38;50.80;96523.06;5133303;27;20072;-46
2023/01/16 12:39:11;;;;;;;5.43;1.33;;;;;;;10.86;50.79;96565.91;5133203;27;20050;-47
2023/01/16 12:45:00;;;;;;;4.05;1.25;;;;;;;10.37;54.04;96584.50;5133132;27;20045;-46
2023/01/16 12:47:26;;;;;;;6.68;1.60;;;;;;;10.27;54.64;96555.53;5101065;27;20496;-46
2023/01/16 12:50:07;;;;;;;7.25;2.10;;;;;;;10.31;56.62;96594.13;5132982;27;20079;-46
2023/01/16 12:52:45;;;;;;;10.93;6.82;;;;;;;10.20;56.67;96579.31;5132956;27;20228;-46